Derby, NY (14047)

9:51 AM EST on January 27, 2015 (GMT -0500)
Beechwood Road | Change Station
CLOSE
Current Station
Personal Weather Station
Location: Derby, NY
Elevation: 600 ft
Nearby Weather Stations

Elev 600 ft 42.69 °N, 79.05 °W | Updated 15 seconds ago

Snow
Snow
18.7 °F
Feels Like 19 °F
N
2.2
Wind Variable Wind from West

Today
High -- | Low -- °F
--% Chance of Precip.
Yesterday
High -- | Low -- °F
Precip. -- in
7:35 AM 5:22 PM
First Quarter, 54% visible
Pressure 30.00 in
Visibility 3.0 miles
Clouds Overcast 3800 ft
Windchill 19 °F
Dew Point 12 °F
Humidity 76%
Rainfall 0.00 in
Snow Depth Not available.
UV 0 out of 12
Pollen .10 out of 12
Air Quality Not available.
Flu Activity Not available.
SPECI KDKK 271438Z AUTO 05008KT 3SM -SN BR OVC038 M09/M12 A3000 RMK AO2 P0000 T10941117

More Conditions Fewer Conditions

Pressure 30.00 in
Visibility 3.0 miles
Clouds Overcast 3800 ft
Windchill 19 °F
Dew Point 12 °F
Humidity 76%
Rainfall 0.00 in
Snow Depth Not available.
UV 0 out of 12
Pollen .10 out of 12
Air Quality Not available.
Flu Activity Not available.
SPECI KDKK 271438Z AUTO 05008KT 3SM -SN BR OVC038 M09/M12 A3000 RMK AO2 P0000 T10941117

More Conditions Fewer Conditions

10-Day Weather Forecast

Almanac

Astronomy

Jan. 27, 2015 Rise Set
Actual Time
Civil Twilight
Nautical Twilight
Astronomical Twilight
Moon
Length of Visible Light
Length of Day
Tomorrow will be .
, % of the Moon is Illuminated

Today's Extremes

State Highs State Lows

Community

WunderPhotos

Upload Photos

1,790,655 photos uploaded!

WunderBlogs® & News

Nearby

Air Quality

  Air Quality AQ Index Pollutant
Not available.

Snow Depth

Station Depth Elevation

Earthquake Activity

City Distance Mag. Time & Date
Minimum magnitude displayed is 2.5.

Coastal Water Temperatures

Place Temperature

Nearby Weather Stations